Time;durP1;ratioP1;P1;durP2;ratioP2;P2;SDS_P1;SDS_P2;PMS_P1;PMS_P2;Temp;Humidity;BMP_temperature;BMP_pressure;BME280_temperature;BME280_humidity;BME280_pressure;Samples;Min_cycle;Max_cycle;Signal;HPM_P1;HPM_P2
2022/05/08 00:02:09;;;;;;;;;;;;;;;;;;5024922;28;19924;-66
2022/05/08 00:04:35;;;;;;;;;;;;;;;;;;5025133;28;19920;-66
2022/05/08 00:07:01;;;;;;;;;;;;;;;;;;5004778;28;19928;-66
2022/05/08 00:09:27;;;;;;;;;;;;;;;;;;5005274;28;20574;-66
2022/05/08 00:11:53;;;;;;;;;;;;;;;;;;5006875;28;20066;-66
2022/05/08 00:14:19;;;;;;;;;;;;;;;;;;5017839;28;19924;-65
2022/05/08 00:16:45;;;;;;;;;;;;;;;;;;5012692;28;19917;-66
2022/05/08 00:19:11;;;;;;;;;;;;;;;;;;5008219;28;19917;-67
2022/05/08 00:21:39;;;;;;;;;;;;;;;;;;5008690;28;19916;-66
2022/05/08 00:24:05;;;;;;;;;;;;;;;;;;5010252;28;19917;-66
2022/05/08 00:26:30;;;;;;;;;;;;;;;;;;5009168;28;20382;-67
2022/05/08 00:28:56;;;;;;;;;;;;;;;;;;5005255;28;21526;-66
2022/05/08 00:31:23;;;;;;;;;;;;;;;;;;5010386;28;19924;-65
2022/05/08 00:33:49;;;;;;;;;;;;;;;;;;5005527;28;19979;-66
2022/05/08 00:36:15;;;;;;;;;;;;;;;;;;5001454;28;20413;-66
2022/05/08 00:38:41;;;;;;;;;;;;;;;;;;5003530;28;19917;-66
2022/05/08 00:41:07;;;;;;;;;;;;;;;;;;5003054;28;19921;-66
2022/05/08 00:43:33;;;;;;;;;;;;;;;;;;5005650;28;20531;-66
2022/05/08 00:45:59;;;;;;;;;;;;;;;;;;5004571;28;19917;-67
2022/05/08 00:48:25;;;;;;;;;;;;;;;;;;5006685;28;19957;-67
2022/05/08 00:50:52;;;;;;;;;;;;;;;;;;5019258;28;19927;-67
2022/05/08 00:53:18;;;;;;;;;;;;;;;;;;5012731;28;19970;-67
2022/05/08 00:55:44;;;;;;;;;;;;;;;;;;5003931;28;20778;-66
2022/05/08 00:58:09;;;;;;;;;;;;;;;;;;5012280;28;19923;-66
2022/05/08 01:00:35;;;;;;;;;;;;;;;;;;5005129;28;19925;-67
2022/05/08 01:03:02;;;;;;;;;;;;;;;;;;5005188;28;19916;-67
2022/05/08 01:05:28;;;;;;;;;;;;;;;;;;5009388;28;20167;-67
2022/05/08 01:07:54;;;;;;;;;;;;;;;;;;5016349;28;19960;-66
2022/05/08 01:10:20;;;;;;;;;;;;;;;;;;5023955;28;20371;-66
2022/05/08 01:12:46;;;;;;;;;;;;;;;;;;5017857;28;19923;-66
2022/05/08 01:15:12;;;;;;;;;;;;;;;;;;5022139;28;20004;-66
2022/05/08 01:17:38;;;;;;;;;;;;;;;;;;5013333;28;19974;-67
2022/05/08 01:20:04;;;;;;;;;;;;;;;;;;5020072;28;20070;-67
2022/05/08 01:22:30;;;;;;;;;;;;;;;;;;5026877;28;20022;-65
2022/05/08 01:24:56;;;;;;;;;;;;;;;;;;5023715;28;19917;-65
2022/05/08 01:27:22;;;;;;;;;;;;;;;;;;5026552;28;19994;-66
2022/05/08 01:29:47;;;;;;;;;;;;;;;;;;5021055;28;20437;-66
2022/05/08 01:32:13;;;;;;;;;;;;;;;;;;5026502;28;19921;-66
2022/05/08 01:34:39;;;;;;;;;;;;;;;;;;5020966;28;20581;-67
2022/05/08 01:37:05;;;;;;;;;;;;;;;;;;5022554;28;19924;-66
2022/05/08 01:39:31;;;;;;;;;;;;;;;;;;5005595;28;20016;-66
2022/05/08 01:41:58;;;;;;;;;;;;;;;;;;5029124;28;19994;-66
2022/05/08 01:44:24;;;;;;;;;;;;;;;;;;5028457;28;19917;-66
2022/05/08 01:48:21;;;;;;;;;;;;;;;;;;5020331;28;19975;-66
2022/05/08 01:49:37;;;;;;;;;;;;;;;;;;5030909;28;20009;-67
2022/05/08 01:52:03;;;;;;;;;;;;;;;;;;5025399;28;19924;-67
2022/05/08 01:54:29;;;;;;;;;;;;;;;;;;5006378;28;19917;-66
2022/05/08 01:56:55;;;;;;;;;;;;;;;;;;5003949;28;19917;-67
2022/05/08 01:59:21;;;;;;;;;;;;;;;;;;5030548;28;20235;-67
2022/05/08 02:01:47;;;;;;;;;;;;;;;;;;5027288;28;19968;-65
2022/05/08 02:04:15;;;;;;;;;;;;;;;;;;5020170;28;20282;-65
2022/05/08 02:06:41;;;;;;;;;;;;;;;;;;5016719;28;19921;-65
2022/05/08 02:09:07;;;;;;;;;;;;;;;;;;5028604;28;19932;-64
2022/05/08 02:11:33;;;;;;;;;;;;;;;;;;5026159;28;20005;-66
2022/05/08 02:13:59;;;;;;;;;;;;;;;;;;4998756;28;20418;-65
2022/05/08 02:16:25;;;;;;;;;;;;;;;;;;5024543;28;20361;-65
2022/05/08 02:18:51;;;;;;;;;;;;;;;;;;5027185;28;19917;-65
2022/05/08 02:21:17;;;;;;;;;;;;;;;;;;5030896;28;19974;-65
2022/05/08 02:23:43;;;;;;;;;;;;;;;;;;5005622;28;20579;-65
2022/05/08 02:26:09;;;;;;;;;;;;;;;;;;5030060;28;19921;-66
2022/05/08 02:28:35;;;;;;;;;;;;;;;;;;5028166;28;19970;-66
2022/05/08 02:31:01;;;;;;;;;;;;;;;;;;5023242;28;19917;-65
2022/05/08 02:33:27;;;;;;;;;;;;;;;;;;5021471;28;20368;-65
2022/05/08 02:35:53;;;;;;;;;;;;;;;;;;5002780;28;19956;-65
2022/05/08 02:38:19;;;;;;;;;;;;;;;;;;5029755;28;20348;-65
2022/05/08 02:40:45;;;;;;;;;;;;;;;;;;5022479;28;20703;-65
2022/05/08 02:43:11;;;;;;;;;;;;;;;;;;5008120;28;19913;-65
2022/05/08 02:45:37;;;;;;;;;;;;;;;;;;5014829;28;19917;-65
2022/05/08 02:48:03;;;;;;;;;;;;;;;;;;5008633;28;19936;-65
2022/05/08 02:50:29;;;;;;;;;;;;;;;;;;5005532;28;20565;-65
2022/05/08 02:52:55;;;;;;;;;;;;;;;;;;5021402;28;19917;-65
2022/05/08 03:00:51;;;;;;;;;;;;;;;;;;5021936;28;20006;-65
2022/05/08 03:03:17;;;;;;;;;;;;;;;;;;5024077;28;19917;-65
2022/05/08 03:05:43;;;;;;;;;;;;;;;;;;5016823;28;20223;-65
2022/05/08 03:08:11;;;;;;;;;;;;;;;;;;5022104;28;19925;-65
2022/05/08 03:13:21;;;;;;;;;;;;;;;;;;5021854;28;20467;-65
2022/05/08 03:15:47;;;;;;;;;;;;;;;;;;5021821;28;19924;-66
2022/05/08 03:18:14;;;;;;;;;;;;;;;;;;5023430;28;20322;-66
2022/05/08 03:20:40;;;;;;;;;;;;;;;;;;5020920;28;20262;-66
2022/05/08 03:23:06;;;;;;;;;;;;;;;;;;5023506;28;20351;-65
2022/05/08 03:25:32;;;;;;;;;;;;;;;;;;5008740;28;19916;-65
2022/05/08 03:27:58;;;;;;;;;;;;;;;;;;5021648;28;19917;-65
2022/05/08 03:30:25;;;;;;;;;;;;;;;;;;5029556;28;20171;-65
2022/05/08 03:32:51;;;;;;;;;;;;;;;;;;5022946;28;19923;-65
2022/05/08 03:35:17;;;;;;;;;;;;;;;;;;5034687;28;19921;-65
2022/05/08 03:37:43;;;;;;;;;;;;;;;;;;5023029;28;20285;-65
2022/05/08 03:40:10;;;;;;;;;;;;;;;;;;5026026;28;19921;-65
2022/05/08 03:42:36;;;;;;;;;;;;;;;;;;5021305;28;20035;-65
2022/05/08 03:45:02;;;;;;;;;;;;;;;;;;5026268;28;19916;-65
2022/05/08 03:47:28;;;;;;;;;;;;;;;;;;5026429;28;20646;-65
2022/05/08 03:49:54;;;;;;;;;;;;;;;;;;5024564;28;19924;-65
2022/05/08 03:52:20;;;;;;;;;;;;;;;;;;5026346;28;20322;-65
2022/05/08 03:54:46;;;;;;;;;;;;;;;;;;5003682;28;20381;-65
2022/05/08 03:57:12;;;;;;;;;;;;;;;;;;5031729;28;19916;-65
2022/05/08 03:59:38;;;;;;;;;;;;;;;;;;5025507;28;19916;-65
2022/05/08 04:02:04;;;;;;;;;;;;;;;;;;5025147;28;20178;-66
2022/05/08 04:04:30;;;;;;;;;;;;;;;;;;5009519;28;19920;-65
2022/05/08 04:06:56;;;;;;;;;;;;;;;;;;5003334;28;19967;-65
2022/05/08 04:09:22;;;;;;;;;;;;;;;;;;5012150;28;19929;-66
2022/05/08 04:11:48;;;;;;;;;;;;;;;;;;5002543;28;20342;-65
2022/05/08 04:14:14;;;;;;;;;;;;;;;;;;5011039;28;19921;-65
2022/05/08 04:16:40;;;;;;;;;;;;;;;;;;5002970;28;20458;-65
2022/05/08 04:19:07;;;;;;;;;;;;;;;;;;5005362;28;19952;-65
2022/05/08 04:21:33;;;;;;;;;;;;;;;;;;5007035;28;20451;-65
2022/05/08 04:24:18;;;;;;;;;;;;;;;;;;5007655;28;20302;-65
2022/05/08 04:26:44;;;;;;;;;;;;;;;;;;5003922;28;19921;-65
2022/05/08 04:29:10;;;;;;;;;;;;;;;;;;5004948;28;19932;-65
2022/05/08 04:31:36;;;;;;;;;;;;;;;;;;5002584;28;20079;-65
2022/05/08 04:34:02;;;;;;;;;;;;;;;;;;5001035;28;20040;-66
2022/05/08 04:36:29;;;;;;;;;;;;;;;;;;5005537;28;19927;-65
2022/05/08 04:38:55;;;;;;;;;;;;;;;;;;5001975;28;20014;-65
2022/05/08 04:41:21;;;;;;;;;;;;;;;;;;5012738;28;19979;-65
2022/05/08 04:43:47;;;;;;;;;;;;;;;;;;5000050;28;19917;-64
2022/05/08 04:46:13;;;;;;;;;;;;;;;;;;5008547;28;19916;-65
2022/05/08 04:48:39;;;;;;;;;;;;;;;;;;5004382;28;19921;-65
2022/05/08 04:51:05;;;;;;;;;;;;;;;;;;5003715;28;19917;-67
2022/05/08 04:53:31;;;;;;;;;;;;;;;;;;5005955;28;20330;-65
2022/05/08 04:55:56;;;;;;;;;;;;;;;;;;4999476;28;21097;-65
2022/05/08 04:58:22;;;;;;;;;;;;;;;;;;5006581;28;19924;-66
2022/05/08 05:00:48;;;;;;;;;;;;;;;;;;5002071;28;19924;-65
2022/05/08 05:03:14;;;;;;;;;;;;;;;;;;5019854;28;19921;-65
2022/05/08 05:05:40;;;;;;;;;;;;;;;;;;5003555;28;19944;-65
2022/05/08 05:08:06;;;;;;;;;;;;;;;;;;5024574;28;19924;-65
2022/05/08 05:10:32;;;;;;;;;;;;;;;;;;5007124;28;19925;-65
2022/05/08 05:12:58;;;;;;;;;;;;;;;;;;5022034;28;19916;-65
2022/05/08 05:15:24;;;;;;;;;;;;;;;;;;5027223;28;19920;-65
2022/05/08 05:17:50;;;;;;;;;;;;;;;;;;5031216;28;20044;-65
2022/05/08 05:20:16;;;;;;;;;;;;;;;;;;5026058;28;19923;-65
2022/05/08 05:22:42;;;;;;;;;;;;;;;;;;5026388;28;19916;-65
2022/05/08 05:25:08;;;;;;;;;;;;;;;;;;5029251;28;19997;-65
2022/05/08 05:27:34;;;;;;;;;;;;;;;;;;5026343;28;20458;-65
2022/05/08 05:30:03;;;;;;;;;;;;;;;;;;5026692;28;20035;-64
2022/05/08 05:32:29;;;;;;;;;;;;;;;;;;5028823;28;19917;-64
2022/05/08 05:34:55;;;;;;;;;;;;;;;;;;5004531;28;19956;-67
2022/05/08 05:37:21;;;;;;;;;;;;;;;;;;5007329;28;20381;-67
2022/05/08 05:39:47;;;;;;;;;;;;;;;;;;5027633;28;20346;-67
2022/05/08 05:42:13;;;;;;;;;;;;;;;;;;5024380;28;20193;-64
2022/05/08 05:44:39;;;;;;;;;;;;;;;;;;5022074;28;19917;-65
2022/05/08 05:49:49;;;;;;;;;;;;;;;;;;5023425;28;20597;-67
2022/05/08 05:52:15;;;;;;;;;;;;;;;;;;5026777;28;19955;-64
2022/05/08 05:54:41;;;;;;;;;;;;;;;;;;5022453;28;20039;-64
2022/05/08 05:57:07;;;;;;;;;;;;;;;;;;5028233;28;20382;-65
2022/05/08 05:59:33;;;;;;;;;;;;;;;;;;5025976;28;19924;-65
2022/05/08 06:01:59;;;;;;;;;;;;;;;;;;4998111;28;19917;-65
2022/05/08 06:04:25;;;;;;;;;;;;;;;;;;5025804;28;20365;-65
2022/05/08 06:06:51;;;;;;;;;;;;;;;;;;5021986;28;19928;-65
2022/05/08 06:09:17;;;;;;;;;;;;;;;;;;5017897;28;19932;-65
2022/05/08 06:11:44;;;;;;;;;;;;;;;;;;5036435;28;19955;-65
2022/05/08 06:14:10;;;;;;;;;;;;;;;;;;5026314;28;20106;-65
2022/05/08 06:16:36;;;;;;;;;;;;;;;;;;5026153;28;19924;-65
2022/05/08 06:19:02;;;;;;;;;;;;;;;;;;5003303;28;19979;-65
2022/05/08 06:21:28;;;;;;;;;;;;;;;;;;5026083;28;20039;-65
2022/05/08 06:23:54;;;;;;;;;;;;;;;;;;5022213;28;19916;-65
2022/05/08 06:26:20;;;;;;;;;;;;;;;;;;5029892;28;19947;-67
2022/05/08 06:28:47;;;;;;;;;;;;;;;;;;5023983;28;20429;-64
2022/05/08 06:31:15;;;;;;;;;;;;;;;;;;5005682;28;20197;-65
2022/05/08 06:33:43;;;;;;;;;;;;;;;;;;5021518;28;20380;-65
2022/05/08 06:36:09;;;;;;;;;;;;;;;;;;5000032;28;19931;-67
2022/05/08 06:38:34;;;;;;;;;;;;;;;;;;5021691;28;19917;-67
2022/05/08 06:41:01;;;;;;;;;;;;;;;;;;5019100;28;19917;-66
2022/05/08 06:43:27;;;;;;;;;;;;;;;;;;5023853;28;20012;-66
2022/05/08 06:45:53;;;;;;;;;;;;;;;;;;5027206;28;19917;-66
2022/05/08 06:48:19;;;;;;;;;;;;;;;;;;5033273;28;19923;-66
2022/05/08 06:50:45;;;;;;;;;;;;;;;;;;5024227;28;20297;-66
2022/05/08 06:53:11;;;;;;;;;;;;;;;;;;5027814;28;20278;-66
2022/05/08 06:55:37;;;;;;;;;;;;;;;;;;5022837;28;19922;-67
2022/05/08 06:58:03;;;;;;;;;;;;;;;;;;5003191;28;19923;-67
2022/05/08 07:03:26;;;;;;;;;;;;;;;;;;4960649;28;19929;-66
2022/05/08 07:05:53;;;;;;;;;;;;;;;;;;4960121;28;19921;-67
2022/05/08 07:08:19;;;;;;;;;;;;;;;;;;4960209;28;20484;-67
2022/05/08 07:10:45;;;;;;;;;;;;;;;;;;4959700;28;19926;-67
2022/05/08 07:13:11;;;;;;;;;;;;;;;;;;4963294;28;19918;-66
2022/05/08 07:15:38;;;;;;;;;;;;;;;;;;4967553;28;20522;-67
2022/05/08 07:18:04;;;;;;;;;;;;;;;;;;4944730;28;20299;-66
2022/05/08 07:20:30;;;;;;;;;;;;;;;;;;4960145;28;20011;-66
2022/05/08 07:22:56;;;;;;;;;;;;;;;;;;4955394;28;20505;-66
2022/05/08 07:25:22;;;;;;;;;;;;;;;;;;4963615;28;19918;-66
2022/05/08 07:27:48;;;;;;;;;;;;;;;;;;4958948;28;19949;-67
2022/05/08 07:30:14;;;;;;;;;;;;;;;;;;4959962;28;19968;-66
2022/05/08 07:32:40;;;;;;;;;;;;;;;;;;4957741;28;20036;-65
2022/05/08 07:37:50;;;;;;;;;;;;;;;;;;4956051;28;20783;-65
2022/05/08 07:40:16;;;;;;;;;;;;;;;;;;5000336;28;19924;-64
2022/05/08 07:42:42;;;;;;;;;;;;;;;;;;5022375;28;19916;-64
2022/05/08 07:45:08;;;;;;;;;;;;;;;;;;5026606;28;19927;-65
2022/05/08 07:47:34;;;;;;;;;;;;;;;;;;5010322;28;19925;-64
2022/05/08 07:50:00;;;;;;;;;;;;;;;;;;5021451;28;19920;-65
2022/05/08 07:52:26;;;;;;;;;;;;;;;;;;5022895;28;20008;-64
2022/05/08 07:54:52;;;;;;;;;;;;;;;;;;5019935;28;20685;-64
2022/05/08 07:57:18;;;;;;;;;;;;;;;;;;5026488;28;20397;-64
2022/05/08 07:59:44;;;;;;;;;;;;;;;;;;5026828;28;20217;-63
2022/05/08 08:02:10;;;;;;;;;;;;;;;;;;5022480;28;19916;-64
2022/05/08 08:04:36;;;;;;;;;;;;;;;;;;5030412;28;20238;-64
2022/05/08 08:07:02;;;;;;;;;;;;;;;;;;5034927;28;20031;-64
2022/05/08 08:09:35;;;;;;;;;;;;;;;;;;5021465;28;19929;-64
2022/05/08 08:12:01;;;;;;;;;;;;;;;;;;5015470;28;20322;-64
2022/05/08 08:14:27;;;;;;;;;;;;;;;;;;5025847;28;19986;-64
2022/05/08 08:16:53;;;;;;;;;;;;;;;;;;5010476;28;19944;-64
2022/05/08 08:19:19;;;;;;;;;;;;;;;;;;5004304;28;20453;-64
2022/05/08 08:21:45;;;;;;;;;;;;;;;;;;5024863;28;20239;-64
2022/05/08 08:24:11;;;;;;;;;;;;;;;;;;5026954;28;19921;-63
2022/05/08 08:26:40;;;;;;;;;;;;;;;;;;5017662;28;19959;-64
2022/05/08 08:29:06;;;;;;;;;;;;;;;;;;5003675;28;19927;-64
2022/05/08 08:31:32;;;;;;;;;;;;;;;;;;5014135;28;19920;-63
2022/05/08 08:33:58;;;;;;;;;;;;;;;;;;5017284;28;19921;-63
2022/05/08 08:36:27;;;;;;;;;;;;;;;;;;5010766;28;20133;-63
2022/05/08 08:38:54;;;;;;;;;;;;;;;;;;5018007;28;19927;-63
2022/05/08 08:41:20;;;;;;;;;;;;;;;;;;5035447;28;20051;-64
2022/05/08 08:49:16;;;;;;;;;;;;;;;;;;5028322;28;19970;-64
2022/05/08 08:51:42;;;;;;;;;;;;;;;;;;5025963;28;20030;-64
2022/05/08 08:54:08;;;;;;;;;;;;;;;;;;5025338;28;20326;-64
2022/05/08 08:56:34;;;;;;;;;;;;;;;;;;5015647;28;19917;-62
2022/05/08 08:59:00;;;;;;;;;;;;;;;;;;5018998;28;19924;-64
2022/05/08 09:01:26;;;;;;;;;;;;;;;;;;5022867;28;20320;-64
2022/05/08 09:03:52;;;;;;;;;;;;;;;;;;4999010;28;19931;-63
2022/05/08 09:06:18;;;;;;;;;;;;;;;;;;5032545;28;19917;-63
2022/05/08 09:08:44;;;;;;;;;;;;;;;;;;5007827;28;20446;-63
2022/05/08 09:11:10;;;;;;;;;;;;;;;;;;5003880;28;19917;-63
2022/05/08 09:13:36;;;;;;;;;;;;;;;;;;5025990;28;20457;-63
2022/05/08 09:16:02;;;;;;;;;;;;;;;;;;4995673;28;20370;-63
2022/05/08 09:18:28;;;;;;;;;;;;;;;;;;5022077;28;20057;-62
2022/05/08 09:20:55;;;;;;;;;;;;;;;;;;5019008;28;20266;-63
2022/05/08 09:23:21;;;;;;;;;;;;;;;;;;5037180;28;20016;-64
2022/05/08 09:25:49;;;;;;;;;;;;;;;;;;5004573;28;20286;-63
2022/05/08 09:28:16;;;;;;;;;;;;;;;;;;5010657;28;20657;-61
2022/05/08 09:30:42;;;;;;;;;;;;;;;;;;5024677;28;19920;-63
2022/05/08 09:33:08;;;;;;;;;;;;;;;;;;5020647;28;19921;-62
2022/05/08 09:35:34;;;;;;;;;;;;;;;;;;5008675;28;19927;-64
2022/05/08 09:38:00;;;;;;;;;;;;;;;;;;4978924;28;19917;-63
2022/05/08 09:40:26;;;;;;;;;;;;;;;;;;5018975;28;19997;-63
2022/05/08 09:42:52;;;;;;;;;;;;;;;;;;5031736;28;20278;-63
2022/05/08 09:45:18;;;;;;;;;;;;;;;;;;5034437;28;19917;-63
2022/05/08 09:47:44;;;;;;;;;;;;;;;;;;5022658;28;19921;-64
2022/05/08 09:50:10;;;;;;;;;;;;;;;;;;5024423;28;19921;-64
2022/05/08 09:52:38;;;;;;;;;;;;;;;;;;5020105;28;20586;-64
2022/05/08 09:55:04;;;;;;;;;;;;;;;;;;5017403;28;19917;-64
2022/05/08 09:57:31;;;;;;;;;;;;;;;;;;5017356;28;19928;-64
2022/05/08 09:59:58;;;;;;;;;;;;;;;;;;5016160;28;22109;-63
2022/05/08 10:02:24;;;;;;;;;;;;;;;;;;5026974;28;20015;-64
2022/05/08 10:04:50;;;;;;;;;;;;;;;;;;5027007;28;19921;-65
2022/05/08 10:07:16;;;;;;;;;;;;;;;;;;5030649;28;19924;-63
2022/05/08 10:15:14;;;;;;;;;;;;;;;;;;4974741;28;20007;-63
2022/05/08 10:17:40;;;;;;;;;;;;;;;;;;4975881;28;19916;-64
2022/05/08 10:20:06;;;;;;;;;;;;;;;;;;4976664;28;20572;-63
2022/05/08 10:22:32;;;;;;;;;;;;;;;;;;4959813;28;20626;-63
2022/05/08 10:24:58;;;;;;;;;;;;;;;;;;4968688;28;19925;-65
2022/05/08 10:27:24;;;;;;;;;;;;;;;;;;4975631;28;20083;-64
2022/05/08 10:29:50;;;;;;;;;;;;;;;;;;4959745;28;19921;-64
2022/05/08 10:32:17;;;;;;;;;;;;;;;;;;4979989;28;20464;-63
2022/05/08 10:34:44;;;;;;;;;;;;;;;;;;4975913;28;20400;-63
2022/05/08 10:37:11;;;;;;;;;;;;;;;;;;4960693;28;20380;-63
2022/05/08 10:39:38;;;;;;;;;;;;;;;;;;4958251;28;20500;-66
2022/05/08 10:42:04;;;;;;;;;;;;;;;;;;4988440;28;19925;-63
2022/05/08 10:44:31;;;;;;;;;;;;;;;;;;4987504;28;20504;-63
2022/05/08 10:47:00;;;;;;;;;;;;;;;;;;4959638;28;19928;-64
2022/05/08 10:49:26;;;;;;;;;;;;;;;;;;4990448;28;19967;-63
2022/05/08 10:51:52;;;;;;;;;;;;;;;;;;5018047;28;19921;-64
2022/05/08 10:54:18;;;;;;;;;;;;;;;;;;5024769;28;19951;-64
2022/05/08 10:56:44;;;;;;;;;;;;;;;;;;5021029;28;20456;-64
2022/05/08 10:59:10;;;;;;;;;;;;;;;;;;5027290;28;20445;-64
2022/05/08 11:01:40;;;;;;;;;;;;;;;;;;5013234;28;19924;-64
2022/05/08 11:04:06;;;;;;;;;;;;;;;;;;5029181;28;19963;-64
2022/05/08 11:06:32;;;;;;;;;;;;;;;;;;5034880;28;20062;-64
2022/05/08 11:08:58;;;;;;;;;;;;;;;;;;5013675;28;19917;-64
2022/05/08 11:11:24;;;;;;;;;;;;;;;;;;5010421;28;20737;-64
2022/05/08 11:13:51;;;;;;;;;;;;;;;;;;5013332;28;19921;-65
2022/05/08 11:16:17;;;;;;;;;;;;;;;;;;5010409;28;19939;-63
2022/05/08 11:18:43;;;;;;;;;;;;;;;;;;5008596;28;19916;-63
2022/05/08 11:21:09;;;;;;;;;;;;;;;;;;5012757;28;19917;-63
2022/05/08 11:23:35;;;;;;;;;;;;;;;;;;5032776;28;19921;-64
2022/05/08 11:26:01;;;;;;;;;;;;;;;;;;5032082;28;20441;-63
2022/05/08 11:28:27;;;;;;;;;;;;;;;;;;5032402;28;19947;-63
2022/05/08 11:30:53;;;;;;;;;;;;;;;;;;5013111;28;20070;-64
2022/05/08 11:36:04;;;;;;;;;;;;;;;;;;5027365;28;19928;-64
2022/05/08 11:38:30;;;;;;;;;;;;;;;;;;5014805;28;20017;-64
2022/05/08 11:40:56;;;;;;;;;;;;;;;;;;5027931;28;20040;-64
2022/05/08 11:43:22;;;;;;;;;;;;;;;;;;5030498;28;19920;-64
2022/05/08 11:45:48;;;;;;;;;;;;;;;;;;5015192;28;19916;-63
2022/05/08 11:48:15;;;;;;;;;;;;;;;;;;5018972;28;19994;-64
2022/05/08 11:50:41;;;;;;;;;;;;;;;;;;5041996;28;19920;-63
2022/05/08 11:53:07;;;;;;;;;;;;;;;;;;5032627;28;19920;-63
2022/05/08 11:55:33;;;;;;;;;;;;;;;;;;5034715;28;20393;-66
2022/05/08 11:57:59;;;;;;;;;;;;;;;;;;5016121;28;19983;-63
2022/05/08 12:00:25;;;;;;;;;;;;;;;;;;5033896;28;19974;-64
2022/05/08 12:02:51;;;;;;;;;;;;;;;;;;5031643;28;19920;-65
2022/05/08 12:05:17;;;;;;;;;;;;;;;;;;5015849;28;20270;-63
2022/05/08 12:07:46;;;;;;;;;;;;;;;;;;5001463;28;19957;-64
2022/05/08 12:10:12;;;;;;;;;;;;;;;;;;5010451;28;20325;-64
2022/05/08 12:12:39;;;;;;;;;;;;;;;;;;5011690;28;20359;-64
2022/05/08 12:15:06;;;;;;;;;;;;;;;;;;5012147;28;20166;-64
2022/05/08 12:17:32;;;;;;;;;;;;;;;;;;5015747;28;20514;-63
2022/05/08 12:19:58;;;;;;;;;;;;;;;;;;5008960;28;19918;-63
2022/05/08 12:22:30;;;;;;;;;;;;;;;;;;5025222;28;19928;-64
2022/05/08 12:24:58;;;;;;;;;;;;;;;;;;5015087;28;20369;-65
2022/05/08 12:27:24;;;;;;;;;;;;;;;;;;5019396;28;19913;-65
2022/05/08 12:29:50;;;;;;;;;;;;;;;;;;5010983;28;20001;-68
2022/05/08 12:32:16;;;;;;;;;;;;;;;;;;5012792;28;19931;-69
2022/05/08 12:34:42;;;;;;;;;;;;;;;;;;5006444;28;19921;-68
2022/05/08 12:37:08;;;;;;;;;;;;;;;;;;5012652;28;19956;-68
2022/05/08 12:39:34;;;;;;;;;;;;;;;;;;5012389;28;20033;-70
2022/05/08 12:42:01;;;;;;;;;;;;;;;;;;5015229;28;19948;-69
2022/05/08 12:44:27;;;;;;;;;;;;;;;;;;5018030;28;20612;-67
2022/05/08 12:46:53;;;;;;;;;;;;;;;;;;5012314;28;19917;-67
2022/05/08 12:49:19;;;;;;;;;;;;;;;;;;5008636;28;19971;-67
2022/05/08 12:51:46;;;;;;;;;;;;;;;;;;5013393;28;20379;-67
2022/05/08 12:54:12;;;;;;;;;;;;;;;;;;5012610;28;19924;-67
2022/05/08 12:56:38;;;;;;;;;;;;;;;;;;5009839;28;19921;-67
2022/05/08 13:01:49;;;;;;;;;;;;;;;;;;5009090;28;20016;-66
2022/05/08 13:04:15;;;;;;;;;;;;;;;;;;5013665;28;19968;-66
2022/05/08 13:06:41;;;;;;;;;;;;;;;;;;5007949;28;20047;-67
2022/05/08 13:09:07;;;;;;;;;;;;;;;;;;5011175;28;19994;-67
2022/05/08 13:11:33;;;;;;;;;;;;;;;;;;5013786;28;19924;-67
2022/05/08 13:14:00;;;;;;;;;;;;;;;;;;5014194;28;19929;-67
2022/05/08 13:16:29;;;;;;;;;;;;;;;;;;5012826;28;19913;-67
2022/05/08 13:18:55;;;;;;;;;;;;;;;;;;5010644;28;20347;-66
2022/05/08 13:21:21;;;;;;;;;;;;;;;;;;5008231;28;20197;-67
2022/05/08 13:23:47;;;;;;;;;;;;;;;;;;5011502;28;19917;-66
2022/05/08 13:26:13;;;;;;;;;;;;;;;;;;5013499;28;20193;-66
2022/05/08 13:28:39;;;;;;;;;;;;;;;;;;5008190;28;20312;-67
2022/05/08 13:31:05;;;;;;;;;;;;;;;;;;5003504;28;20442;-67
2022/05/08 13:33:31;;;;;;;;;;;;;;;;;;5008128;28;19921;-67
2022/05/08 13:35:57;;;;;;;;;;;;;;;;;;5005608;28;20438;-67
2022/05/08 13:38:26;;;;;;;;;;;;;;;;;;5008614;28;19959;-68
2022/05/08 13:40:52;;;;;;;;;;;;;;;;;;5005262;28;19995;-67
2022/05/08 13:43:19;;;;;;;;;;;;;;;;;;5008303;28;19986;-67
2022/05/08 13:45:45;;;;;;;;;;;;;;;;;;4996081;28;19922;-67
2022/05/08 13:48:11;;;;;;;;;;;;;;;;;;5004656;28;20453;-66
2022/05/08 13:50:38;;;;;;;;;;;;;;;;;;5008122;28;20342;-67
2022/05/08 13:53:08;;;;;;;;;;;;;;;;;;5019958;28;19921;-67
2022/05/08 13:55:35;;;;;;;;;;;;;;;;;;5004551;28;20402;-67
2022/05/08 13:58:01;;;;;;;;;;;;;;;;;;5002415;28;19923;-67
2022/05/08 14:00:28;;;;;;;;;;;;;;;;;;5004379;28;20350;-67
2022/05/08 14:02:54;;;;;;;;;;;;;;;;;;5001540;28;20357;-67
2022/05/08 14:05:20;;;;;;;;;;;;;;;;;;5008158;28;19921;-68
2022/05/08 14:07:46;;;;;;;;;;;;;;;;;;5018854;28;19931;-66
2022/05/08 14:10:13;;;;;;;;;;;;;;;;;;5025343;28;20749;-66
2022/05/08 14:12:39;;;;;;;;;;;;;;;;;;5019343;28;19927;-66
2022/05/08 14:15:05;;;;;;;;;;;;;;;;;;5026789;28;20052;-68
2022/05/08 14:17:32;;;;;;;;;;;;;;;;;;5034528;28;19916;-66
2022/05/08 14:19:58;;;;;;;;;;;;;;;;;;5010131;28;20233;-65
2022/05/08 14:22:25;;;;;;;;;;;;;;;;;;5032437;28;19912;-65
2022/05/08 14:24:51;;;;;;;;;;;;;;;;;;5028246;28;20286;-65
2022/05/08 14:27:17;;;;;;;;;;;;;;;;;;5009398;28;19920;-67
2022/05/08 14:29:43;;;;;;;;;;;;;;;;;;5007814;28;20342;-66
2022/05/08 14:37:38;;;;;;;;;;;;;;;;;;5022838;28;20377;-65
2022/05/08 14:40:04;;;;;;;;;;;;;;;;;;5028632;28;19917;-66
2022/05/08 14:42:30;;;;;;;;;;;;;;;;;;5030637;28;20012;-66
2022/05/08 14:44:56;;;;;;;;;;;;;;;;;;5029241;28;19967;-65
2022/05/08 14:47:22;;;;;;;;;;;;;;;;;;5027896;28;20015;-66
2022/05/08 14:49:48;;;;;;;;;;;;;;;;;;5028968;28;19924;-66
2022/05/08 14:52:14;;;;;;;;;;;;;;;;;;5016209;28;19962;-66
2022/05/08 14:54:40;;;;;;;;;;;;;;;;;;5021166;28;20623;-66
2022/05/08 14:57:09;;;;;;;;;;;;;;;;;;5031598;28;19916;-67
2022/05/08 14:59:36;;;;;;;;;;;;;;;;;;5030795;28;19917;-66
2022/05/08 15:02:02;;;;;;;;;;;;;;;;;;5028518;28;19924;-66
2022/05/08 15:04:28;;;;;;;;;;;;;;;;;;5013495;28;19974;-66
2022/05/08 15:06:53;;;;;;;;;;;;;;;;;;5024523;28;19925;-66
2022/05/08 15:09:22;;;;;;;;;;;;;;;;;;5011047;28;19928;-67
2022/05/08 15:11:48;;;;;;;;;;;;;;;;;;5026217;28;19917;-66
2022/05/08 15:14:14;;;;;;;;;;;;;;;;;;5032217;28;19994;-66
2022/05/08 15:16:40;;;;;;;;;;;;;;;;;;5023593;28;19921;-66
2022/05/08 15:19:06;;;;;;;;;;;;;;;;;;5029240;28;20306;-66
2022/05/08 15:21:32;;;;;;;;;;;;;;;;;;5026959;28;20468;-66
2022/05/08 15:23:58;;;;;;;;;;;;;;;;;;5027372;28;20482;-66
2022/05/08 15:26:24;;;;;;;;;;;;;;;;;;5037548;28;20334;-66
2022/05/08 15:28:50;;;;;;;;;;;;;;;;;;5027501;28;19916;-66
2022/05/08 15:31:16;;;;;;;;;;;;;;;;;;5014050;28;19920;-67
2022/05/08 15:33:42;;;;;;;;;;;;;;;;;;5016194;28;20432;-66
2022/05/08 15:36:08;;;;;;;;;;;;;;;;;;5030121;28;19943;-67
2022/05/08 15:38:34;;;;;;;;;;;;;;;;;;5033756;28;19955;-66
2022/05/08 15:41:01;;;;;;;;;;;;;;;;;;5037758;28;19916;-66
2022/05/08 15:43:31;;;;;;;;;;;;;;;;;;5018029;28;19970;-66
2022/05/08 15:45:57;;;;;;;;;;;;;;;;;;5031235;28;19924;-65
2022/05/08 15:48:23;;;;;;;;;;;;;;;;;;5030458;28;20248;-65
2022/05/08 15:50:51;;;;;;;;;;;;;;;;;;5024417;28;20477;-65
2022/05/08 15:53:16;;;;;;;;;;;;;;;;;;5025223;28;19952;-65
2022/05/08 15:55:42;;;;;;;;;;;;;;;;;;5029593;28;20020;-65
2022/05/08 15:58:09;;;;;;;;;;;;;;;;;;5032030;28;19924;-65
2022/05/08 16:00:35;;;;;;;;;;;;;;;;;;5037517;28;19978;-67
2022/05/08 16:03:01;;;;;;;;;;;;;;;;;;5030460;28;19924;-66
2022/05/08 16:05:26;;;;;;;;;;;;;;;;;;5030178;28;20382;-66
2022/05/08 16:07:52;;;;;;;;;;;;;;;;;;5021918;28;19928;-66
2022/05/08 16:10:18;;;;;;;;;;;;;;;;;;5044808;28;19920;-66
2022/05/08 16:23:43;;;;;;;;;;;;;;;;;;5032979;28;19989;-66
2022/05/08 16:26:09;;;;;;;;;;;;;;;;;;5033511;28;19916;-66
2022/05/08 16:28:35;;;;;;;;;;;;;;;;;;5016247;28;20004;-66
2022/05/08 16:31:01;;;;;;;;;;;;;;;;;;5036843;28;20555;-66
2022/05/08 16:33:30;;;;;;;;;;;;;;;;;;5012072;28;19952;-66
2022/05/08 16:35:56;;;;;;;;;;;;;;;;;;5023042;28;20581;-66
2022/05/08 16:38:22;;;;;;;;;;;;;;;;;;5014948;28;19924;-66
2022/05/08 16:40:49;;;;;;;;;;;;;;;;;;5011253;28;19931;-66
2022/05/08 16:43:15;;;;;;;;;;;;;;;;;;5013398;28;19933;-66
2022/05/08 16:45:41;;;;;;;;;;;;;;;;;;5030311;28;19924;-66
2022/05/08 16:48:07;;;;;;;;;;;;;;;;;;5034836;28;19916;-66
2022/05/08 16:50:33;;;;;;;;;;;;;;;;;;5018093;28;19966;-66
2022/05/08 16:52:59;;;;;;;;;;;;;;;;;;5014665;28;19946;-65
2022/05/08 16:55:25;;;;;;;;;;;;;;;;;;5031588;28;19916;-66
2022/05/08 16:57:51;;;;;;;;;;;;;;;;;;5009850;28;19939;-66
2022/05/08 17:00:17;;;;;;;;;;;;;;;;;;5033635;28;19916;-66
2022/05/08 17:02:43;;;;;;;;;;;;;;;;;;5022726;28;19920;-66
2022/05/08 17:05:09;;;;;;;;;;;;;;;;;;5032332;28;20335;-66
2022/05/08 17:07:36;;;;;;;;;;;;;;;;;;5032616;28;19931;-67
2022/05/08 17:10:02;;;;;;;;;;;;;;;;;;5010650;28;19952;-66
2022/05/08 17:12:28;;;;;;;;;;;;;;;;;;5034938;28;20093;-66
2022/05/08 17:14:54;;;;;;;;;;;;;;;;;;5029191;28;20017;-66
2022/05/08 17:17:20;;;;;;;;;;;;;;;;;;5032854;28;19917;-66
2022/05/08 17:19:46;;;;;;;;;;;;;;;;;;5012157;28;19921;-66
2022/05/08 17:22:13;;;;;;;;;;;;;;;;;;5031834;28;20326;-66
2022/05/08 17:24:39;;;;;;;;;;;;;;;;;;5009637;28;19920;-66
2022/05/08 17:29:49;;;;;;;;;;;;;;;;;;5023438;28;20036;-66
2022/05/08 17:32:17;;;;;;;;;;;;;;;;;;5013682;28;20370;-66